Terminal Aerodrome Forecast
Issued by NWS

Home | Current Version | Previous Version | Graphics & Text | Print | Product List | Glossary On
Versions: 1 2 3 4 5 6 7 8 9 10 11 12 13
767
FTUS42 KMHX 171740
TAFISO
TAF
KISO 171740Z 1718/1818 02009KT P6SM OVC060
     FM172100 02009KT 5SM -RASN SCT005 OVC025
     FM172300 02011G20KT 2SM -SN OVC005
     FM180400 36013G20KT 6SM -SHSN SCT005 OVC010
     FM180600 34011G20KT P6SM BKN025
     FM181100 29009KT P6SM SKC
      AMD LTD TO CLD VIS AND WIND=

USA.gov is the U.S. government's official web portal to all federal, state and local government web resources and services.